Time;durP1;ratioP1;P1;durP2;ratioP2;P2;SDS_P1;SDS_P2;PMS_P1;PMS_P2;Temp;Humidity;BMP_temperature;BMP_pressure;BME280_temperature;BME280_humidity;BME280_pressure;Samples;Min_cycle;Max_cycle;Signal;HPM_P1;HPM_P2
2022/10/18 00:00:57;;;;;;;46.88;21.65;;;;;;;13.59;100.00;102528.09;5048981;28;20108;-79
2022/10/18 00:03:23;;;;;;;48.00;20.95;;;;;;;13.58;100.00;102519.38;5047785;28;20098;-78
2022/10/18 00:05:49;;;;;;;40.60;20.02;;;;;;;13.60;100.00;102529.81;5046440;28;20432;-78
2022/10/18 00:08:16;;;;;;;42.47;20.02;;;;;;;13.56;100.00;102517.66;5050399;28;20079;-79
2022/10/18 00:10:41;;;;;;;39.83;20.00;;;;;;;13.57;100.00;102514.16;5048176;28;20029;-78
2022/10/18 00:13:07;;;;;;;44.50;20.85;;;;;;;13.57;100.00;102519.41;5047314;28;20072;-78
2022/10/18 00:15:32;;;;;;;38.80;19.80;;;;;;;13.56;100.00;102523.75;5049440;28;20033;-79
2022/10/18 00:17:57;;;;;;;42.97;20.92;;;;;;;13.54;100.00;102512.44;5050359;28;20035;-79
2022/10/18 00:20:23;;;;;;;39.85;20.38;;;;;;;13.58;100.00;102523.75;5042573;28;20120;-79
2022/10/18 00:22:48;;;;;;;44.35;20.75;;;;;;;13.53;100.00;102512.44;5049398;28;20028;-79
2022/10/18 00:25:14;;;;;;;48.13;21.05;;;;;;;13.55;100.00;102514.16;5052120;28;20492;-79
2022/10/18 00:27:39;;;;;;;34.55;19.48;;;;;;;13.57;100.00;102519.41;5049449;28;20040;-78
2022/10/18 00:30:05;;;;;;;42.05;19.80;;;;;;;13.57;100.00;102514.16;5051654;28;20025;-79
2022/10/18 00:32:36;;;;;;;45.42;19.92;;;;;;;13.59;100.00;102520.22;5050390;28;20033;-79
2022/10/18 00:35:02;;;;;;;38.40;19.52;;;;;;;13.56;100.00;102515.88;5039368;28;20131;-78
2022/10/18 00:37:28;;;;;;;41.75;19.63;;;;;;;13.56;100.00;102517.66;5035629;28;20049;-78
2022/10/18 00:39:53;;;;;;;61.33;21.77;;;;;;;13.51;100.00;102508.97;5041508;28;20083;-78
2022/10/18 00:42:21;;;;;;;38.28;20.08;;;;;;;13.54;100.00;102516.81;5050273;28;20041;-79
2022/10/18 00:44:49;;;;;;;37.72;19.20;;;;;;;13.55;100.00;102516.78;5047929;28;20056;-79
2022/10/18 00:47:16;;;;;;;38.75;19.00;;;;;;;13.51;100.00;102517.69;5046482;28;20025;-78
2022/10/18 00:49:51;;;;;;;38.10;20.02;;;;;;;13.52;100.00;102524.66;5045537;28;20120;-79
2022/10/18 00:52:27;;;;;;;39.05;18.98;;;;;;;13.53;100.00;102520.28;5035675;28;20033;-78
2022/10/18 00:54:55;;;;;;;40.65;18.67;;;;;;;13.53;100.00;102526.38;5047693;28;20499;-79
2022/10/18 00:57:20;;;;;;;35.15;19.10;;;;;;;13.52;100.00;102522.03;5050144;28;20075;-78
2022/10/18 00:59:46;;;;;;;40.42;20.15;;;;;;;13.50;100.00;102523.78;5045080;28;20569;-79
2022/10/18 01:02:16;;;;;;;36.75;18.45;;;;;;;13.51;100.00;102527.31;5046757;28;20159;-79
2022/10/18 01:04:43;;;;;;;35.15;17.80;;;;;;;13.53;100.00;102543.88;5044675;28;20045;-79
2022/10/18 01:07:15;;;;;;;41.25;19.45;;;;;;;13.53;100.00;102538.63;5043053;28;20025;-78
2022/10/18 01:09:46;;;;;;;38.78;18.70;;;;;;;13.55;100.00;102536.88;5038783;28;20033;-79
2022/10/18 01:12:31;;;;;;;33.00;18.27;;;;;;;13.55;100.00;102542.13;5046432;28;20391;-79
2022/10/18 01:15:12;;;;;;;36.60;18.63;;;;;;;13.55;100.00;102544.75;5051801;28;20025;-79
2022/10/18 01:17:54;;;;;;;34.25;17.25;;;;;;;13.54;100.00;102538.63;5035887;28;20037;-79
2022/10/18 01:20:57;;;;;;;41.42;18.55;;;;;;;13.52;100.00;102537.75;5032838;28;20033;-79
2022/10/18 01:23:34;;;;;;;32.03;18.15;;;;;;;13.50;100.00;102533.41;5047491;28;20472;-79
2022/10/18 01:26:42;;;;;;;34.75;18.35;;;;;;;13.47;100.00;102531.72;5046253;28;20036;-79
2022/10/18 01:29:45;;;;;;;32.47;17.80;;;;;;;13.50;100.00;102534.28;5045331;28;20044;-79
2022/10/18 01:32:19;;;;;;;34.30;16.97;;;;;;;13.47;100.00;102529.09;4950452;29;20046;-79
2022/10/18 01:34:48;;;;;;;33.15;17.83;;;;;;;13.49;100.00;102532.56;5024750;28;20040;-79
2022/10/18 01:37:18;;;;;;;38.85;18.42;;;;;;;13.47;100.00;102541.31;5042051;28;20026;-79
2022/10/18 01:39:46;;;;;;;31.65;17.70;;;;;;;13.45;100.00;102545.69;5049552;28;20076;-79
2022/10/18 01:42:15;;;;;;;35.63;18.20;;;;;;;13.42;100.00;102541.34;5040307;28;20063;-78
2022/10/18 01:44:44;;;;;;;29.63;16.83;;;;;;;13.44;100.00;102547.47;5053951;28;20090;-79
2022/10/18 01:47:11;;;;;;;35.35;18.17;;;;;;;13.46;100.00;102539.56;5053842;28;20037;-79
2022/10/18 01:49:36;;;;;;;35.67;18.50;;;;;;;13.47;100.00;102549.16;5041615;28;20033;-79
2022/10/18 01:52:02;;;;;;;34.20;18.45;;;;;;;13.45;100.00;102543.09;5047644;28;20052;-79
2022/10/18 01:54:36;;;;;;;38.63;17.88;;;;;;;13.42;100.00;102538.72;5046155;28;20531;-79
2022/10/18 01:57:17;;;;;;;28.13;17.17;;;;;;;13.39;100.00;102540.50;5045607;28;20037;-79
2022/10/18 01:59:57;;;;;;;30.52;18.30;;;;;;;13.37;100.00;102542.25;5038199;28;20475;-79
2022/10/18 02:02:31;;;;;;;28.35;17.80;;;;;;;13.37;100.00;102542.25;5045148;28;20380;-78
2022/10/18 02:05:30;;;;;;;33.88;17.95;;;;;;;13.33;100.00;102531.81;5036492;28;20099;-78
2022/10/18 02:08:26;;;;;;;32.55;17.77;;;;;;;13.33;100.00;102544.91;5041763;28;20482;-78
2022/10/18 02:11:08;;;;;;;27.90;17.95;;;;;;;13.29;100.00;102545.81;5052189;28;20025;-79
2022/10/18 02:13:42;;;;;;;34.13;18.40;;;;;;;13.24;100.00;102531.91;5051257;28;20055;-78
2022/10/18 02:16:18;;;;;;;31.88;18.23;;;;;;;13.27;100.00;102541.47;5047018;28;20498;-78
2022/10/18 02:18:54;;;;;;;35.35;18.17;;;;;;;13.20;100.00;102524.03;5052420;28;20025;-79
2022/10/18 02:21:20;;;;;;;34.65;18.42;;;;;;;13.26;100.00;102537.13;5052539;28;20029;-78
2022/10/18 02:23:46;;;;;;;36.47;18.08;;;;;;;13.24;100.00;102538.81;5050058;28;20027;-79
2022/10/18 02:26:14;;;;;;;29.83;18.23;;;;;;;13.25;100.00;102544.09;5052817;28;20033;-79
2022/10/18 02:28:40;;;;;;;33.75;19.23;;;;;;;13.26;100.00;102542.34;5040154;28;20033;-79
2022/10/18 02:31:12;;;;;;;41.97;19.45;;;;;;;13.24;100.00;102550.25;5053685;28;20028;-79
2022/10/18 02:33:40;;;;;;;35.15;18.60;;;;;;;13.23;100.00;102553.69;5044322;28;20044;-78
2022/10/18 02:36:14;;;;;;;34.08;18.95;;;;;;;13.22;100.00;102541.47;5051931;28;20094;-79
2022/10/18 02:38:41;;;;;;;34.72;18.20;;;;;;;13.20;100.00;102542.34;5051634;28;20086;-79
2022/10/18 02:41:06;;;;;;;35.97;18.88;;;;;;;13.24;100.00;102558.09;5051785;28;20029;-79
2022/10/18 02:43:31;;;;;;;35.25;19.15;;;;;;;13.22;100.00;102556.31;5042448;28;20031;-79
2022/10/18 02:45:57;;;;;;;35.63;20.33;;;;;;;13.22;100.00;102553.72;5052031;28;20068;-79
2022/10/18 02:48:22;;;;;;;39.25;18.95;;;;;;;13.24;100.00;102546.69;5051967;28;20036;-78
2022/10/18 02:50:47;;;;;;;30.08;18.23;;;;;;;13.22;100.00;102549.34;5053024;28;20107;-79
2022/10/18 02:53:12;;;;;;;36.85;19.33;;;;;;;13.26;100.00;102550.22;5049212;28;20037;-78
2022/10/18 02:55:38;;;;;;;36.60;18.85;;;;;;;13.27;100.00;102554.56;5051924;28;20108;-79
2022/10/18 02:58:03;;;;;;;35.63;20.25;;;;;;;13.24;100.00;102542.38;5051368;28;20024;-78
2022/10/18 03:00:28;;;;;;;36.40;19.90;;;;;;;13.27;100.00;102547.56;5046543;28;20059;-79
2022/10/18 03:02:54;;;;;;;40.33;19.90;;;;;;;13.27;100.00;102550.19;5048330;28;20021;-79
2022/10/18 03:05:19;;;;;;;42.33;19.58;;;;;;;13.27;100.00;102555.41;5040578;28;20038;-79
2022/10/18 03:07:44;;;;;;;32.95;19.88;;;;;;;13.25;100.00;102551.97;5042804;28;20083;-79
2022/10/18 03:10:09;;;;;;;32.70;19.17;;;;;;;13.25;100.00;102543.25;5052775;28;20437;-79
2022/10/18 03:12:35;;;;;;;36.20;19.48;;;;;;;13.28;100.00;102549.31;5046334;28;20490;-79
2022/10/18 03:15:00;;;;;;;33.47;19.13;;;;;;;13.28;100.00;102551.94;5051580;28;20040;-79
2022/10/18 03:17:25;;;;;;;33.53;19.40;;;;;;;13.28;100.00;102544.09;5051171;28;20025;-79
2022/10/18 03:19:51;;;;;;;36.83;19.35;;;;;;;13.27;100.00;102547.56;5053483;28;20028;-79
2022/10/18 03:22:16;;;;;;;35.75;19.52;;;;;;;13.21;100.00;102534.50;5051884;28;20021;-78
2022/10/18 03:24:41;;;;;;;35.78;19.70;;;;;;;13.22;100.00;102549.34;5051077;28;20401;-79
2022/10/18 03:27:06;;;;;;;34.25;18.80;;;;;;;13.26;100.00;102565.94;5051596;28;20045;-79
2022/10/18 03:29:32;;;;;;;36.75;19.98;;;;;;;13.25;100.00;102564.19;5052064;28;20021;-79
2022/10/18 03:31:57;;;;;;;37.30;21.65;;;;;;;13.25;100.00;102565.06;5038901;28;20033;-78
2022/10/18 03:34:22;;;;;;;43.75;20.95;;;;;;;13.23;100.00;102564.16;5050757;28;20074;-79
2022/10/18 03:36:48;;;;;;;41.88;20.33;;;;;;;13.24;100.00;102562.41;5046824;28;20036;-78
2022/10/18 03:39:13;;;;;;;47.75;24.27;;;;;;;13.22;100.00;102558.94;5039983;28;20017;-79
2022/10/18 03:41:38;;;;;;;40.47;22.73;;;;;;;13.22;100.00;102558.94;5051961;28;20036;-79
2022/10/18 03:44:04;;;;;;;42.75;22.75;;;;;;;13.21;100.00;102563.31;5043778;28;20029;-79
2022/10/18 03:46:29;;;;;;;45.47;23.60;;;;;;;13.22;100.00;102559.81;5051504;28;20505;-78
2022/10/18 03:48:54;;;;;;;46.97;24.92;;;;;;;13.20;100.00;102566.78;5052966;28;20025;-79
2022/10/18 03:51:19;;;;;;;46.10;25.50;;;;;;;13.19;100.00;102551.09;5049215;28;20028;-79
2022/10/18 03:53:45;;;;;;;52.67;26.10;;;;;;;13.05;100.00;102535.50;5043948;28;20090;-79
2022/10/18 03:56:10;;;;;;;50.20;25.42;;;;;;;13.10;100.00;102538.94;5051880;28;20036;-79
2022/10/18 03:58:35;;;;;;;56.75;27.77;;;;;;;13.10;100.00;102541.56;5049690;28;20536;-78
2022/10/18 04:01:00;;;;;;;47.33;25.48;;;;;;;13.02;100.00;102527.66;5050615;28;20029;-79
2022/10/18 04:03:26;;;;;;;48.05;26.10;;;;;;;13.00;100.00;102545.97;5044334;28;20488;-79
2022/10/18 04:05:51;;;;;;;85.60;27.00;;;;;;;12.99;100.00;102551.25;5050187;28;20090;-78
2022/10/18 04:08:17;;;;;;;47.55;26.60;;;;;;;12.95;100.00;102544.25;5049356;28;20029;-79
2022/10/18 04:10:42;;;;;;;42.85;25.00;;;;;;;12.91;100.00;102539.94;5050399;28;20032;-79
2022/10/18 04:13:08;;;;;;;49.13;26.77;;;;;;;12.92;100.00;102547.78;5044764;28;20025;-79
2022/10/18 04:15:33;;;;;;;47.20;25.55;;;;;;;12.91;100.00;102540.81;5044153;28;20506;-78
2022/10/18 04:17:59;;;;;;;48.75;26.17;;;;;;;12.90;100.00;102546.91;5038174;28;20033;-78
2022/10/18 04:20:25;;;;;;;47.65;26.13;;;;;;;12.90;100.00;102552.16;5036510;28;20448;-79
2022/10/18 04:22:53;;;;;;;48.53;26.52;;;;;;;12.90;100.00;102544.31;5040487;28;20040;-78
2022/10/18 04:25:19;;;;;;;51.20;26.50;;;;;;;12.80;100.00;102543.50;5044468;28;20032;-79
2022/10/18 04:27:44;;;;;;;52.17;29.15;;;;;;;12.82;100.00;102549.59;5040720;28;20025;-79
2022/10/18 04:30:10;;;;;;;64.18;26.77;;;;;;;12.81;100.00;102560.06;5051902;28;20029;-79
2022/10/18 04:32:35;;;;;;;53.40;27.40;;;;;;;12.80;100.00;102555.72;5044826;28;20051;-79
2022/10/18 04:35:01;;;;;;;44.80;26.00;;;;;;;12.79;100.00;102556.59;5048859;28;20108;-79
2022/10/18 04:37:27;;;;;;;47.38;26.17;;;;;;;12.78;100.00;102557.44;5039922;28;20057;-79
2022/10/18 04:39:52;;;;;;;50.85;27.88;;;;;;;12.79;100.00;102559.22;5041555;28;20530;-78
2022/10/18 04:42:18;;;;;;;49.47;27.05;;;;;;;12.77;100.00;102560.97;5037987;28;20357;-79
2022/10/18 04:44:43;;;;;;;49.17;26.40;;;;;;;12.78;100.00;102567.91;5049106;28;20082;-79
2022/10/18 04:47:08;;;;;;;51.90;27.67;;;;;;;12.73;100.00;102564.47;5049772;28;20025;-78
2022/10/18 04:49:33;;;;;;;54.60;28.48;;;;;;;12.61;100.00;102545.31;5051569;28;20391;-78
2022/10/18 04:51:59;;;;;;;48.55;27.10;;;;;;;12.67;100.00;102565.38;5041011;28;20040;-78
2022/10/18 04:54:24;;;;;;;51.45;27.38;;;;;;;12.67;100.00;102565.38;5043057;28;20029;-79
2022/10/18 04:56:49;;;;;;;56.85;28.38;;;;;;;12.61;100.00;102573.25;5046430;28;20025;-78
2022/10/18 04:59:14;;;;;;;48.83;26.02;;;;;;;12.64;100.00;102578.47;5051714;28;20108;-78
2022/10/18 05:01:40;;;;;;;50.97;27.63;;;;;;;12.63;100.00;102579.34;5047253;28;20037;-78
2022/10/18 05:04:05;;;;;;;55.17;29.02;;;;;;;12.57;100.00;102569.78;5047432;28;20048;-78
2022/10/18 05:06:30;;;;;;;52.55;28.75;;;;;;;12.60;100.00;102564.53;5036736;28;20028;-78
2022/10/18 05:08:55;;;;;;;80.20;30.73;;;;;;;12.58;100.00;102565.41;5039597;28;20032;-78
2022/10/18 05:11:21;;;;;;;66.10;30.23;;;;;;;12.55;100.00;102562.78;5042009;28;20029;-78
2022/10/18 05:13:46;;;;;;;56.20;29.88;;;;;;;12.56;100.00;102568.03;5039360;28;20032;-78
2022/10/18 05:16:11;;;;;;;59.47;30.45;;;;;;;12.57;100.00;102571.53;5050157;28;20029;-78
2022/10/18 05:18:37;;;;;;;55.28;30.00;;;;;;;12.56;100.00;102575.03;5053653;28;20044;-79
2022/10/18 05:21:02;;;;;;;58.47;29.02;;;;;;;12.53;100.00;102577.66;5053929;28;20139;-79
2022/10/18 05:23:27;;;;;;;58.17;30.00;;;;;;;12.54;100.00;102582.84;5052662;28;20112;-78
2022/10/18 05:25:53;;;;;;;61.75;31.02;;;;;;;12.51;100.00;102574.16;5043856;28;20025;-79
2022/10/18 05:28:18;;;;;;;73.55;32.67;;;;;;;12.52;100.00;102583.72;5054554;28;20035;-79
2022/10/18 05:30:43;;;;;;;60.08;31.40;;;;;;;12.52;100.00;102583.72;5050842;28;20029;-79
2022/10/18 05:33:09;;;;;;;62.95;29.95;;;;;;;12.49;100.00;102579.41;5046427;28;20552;-79
2022/10/18 05:35:34;;;;;;;55.83;30.02;;;;;;;12.49;100.00;102587.25;5044065;28;20074;-79
2022/10/18 05:38:04;;;;;;;55.40;30.33;;;;;;;12.48;100.00;102589.88;5051114;28;20024;-79
2022/10/18 05:40:30;;;;;;;57.83;29.77;;;;;;;12.35;100.00;102568.97;5043763;28;20037;-79
2022/10/18 05:42:56;;;;;;;57.95;29.33;;;;;;;12.41;100.00;102581.16;5047307;28;20111;-78
2022/10/18 05:45:21;;;;;;;59.33;31.05;;;;;;;12.40;100.00;102582.91;5048840;28;20033;-79
2022/10/18 05:47:46;;;;;;;66.70;32.70;;;;;;;12.36;100.00;102575.97;5044785;28;20472;-78
2022/10/18 05:50:11;;;;;;;63.10;30.65;;;;;;;12.35;100.00;102582.06;5044356;28;20068;-78
2022/10/18 05:52:37;;;;;;;57.22;30.95;;;;;;;12.30;100.00;102575.97;5051847;28;20021;-79
2022/10/18 05:55:02;;;;;;;66.85;32.38;;;;;;;12.32;100.00;102582.06;5051222;28;20025;-79
2022/10/18 05:57:28;;;;;;;62.35;32.70;;;;;;;12.30;100.00;102590.81;5050702;28;20059;-79
2022/10/18 05:59:53;;;;;;;64.82;32.03;;;;;;;12.28;100.00;102596.03;5035565;28;20102;-78
2022/10/18 06:02:18;;;;;;;61.03;30.70;;;;;;;12.19;100.00;102586.44;5051593;28;20034;-78
2022/10/18 06:04:44;;;;;;;60.65;30.80;;;;;;;12.24;100.00;102596.91;5039061;28;20048;-78
2022/10/18 06:07:10;;;;;;;77.47;33.80;;;;;;;12.19;100.00;102609.13;5044079;28;20094;-78
2022/10/18 06:09:36;;;;;;;83.50;35.95;;;;;;;12.18;100.00;102607.38;5050037;28;20025;-78
2022/10/18 06:12:03;;;;;;;60.92;31.25;;;;;;;12.18;100.00;102617.84;5052746;28;20033;-78
2022/10/18 06:14:28;;;;;;;72.28;33.33;;;;;;;12.11;100.00;102603.91;5047449;28;20032;-78
2022/10/18 06:16:55;;;;;;;75.85;34.28;;;;;;;12.16;100.00;102609.13;5041769;28;20017;-78
2022/10/18 06:19:21;;;;;;;77.97;34.80;;;;;;;12.20;100.00;102605.66;5052406;28;20500;-78
2022/10/18 06:21:46;;;;;;;80.85;35.50;;;;;;;12.21;100.00;102607.38;5054806;28;20025;-78
2022/10/18 06:24:12;;;;;;;97.35;36.95;;;;;;;12.24;100.00;102606.50;5054855;28;20112;-78
2022/10/18 06:26:37;;;;;;;69.78;33.80;;;;;;;12.26;100.00;102617.81;5053394;28;20402;-78
2022/10/18 06:29:02;;;;;;;81.55;35.75;;;;;;;12.26;100.00;102615.19;5053886;28;20463;-79
2022/10/18 06:31:28;;;;;;;75.68;34.85;;;;;;;12.22;100.00;102603.00;5053142;28;20021;-78
2022/10/18 06:33:56;;;;;;;69.30;32.97;;;;;;;12.27;100.00;102615.22;5051509;28;20375;-79
2022/10/18 06:36:22;;;;;;;69.10;33.13;;;;;;;12.31;100.00;102619.56;5052312;28;20036;-78
2022/10/18 06:38:47;;;;;;;82.82;36.30;;;;;;;12.38;100.00;102620.41;5051186;28;20530;-79
2022/10/18 06:41:12;;;;;;;103.15;36.60;;;;;;;12.39;100.00;102633.50;5054435;28;20021;-78
2022/10/18 06:43:38;;;;;;;92.95;37.78;;;;;;;12.41;100.00;102631.72;5054348;28;20040;-79
2022/10/18 06:46:06;;;;;;;89.97;37.47;;;;;;;12.45;100.00;102627.34;5053554;28;20093;-78
2022/10/18 06:48:32;;;;;;;85.45;35.47;;;;;;;12.43;100.00;102626.50;5053843;28;20443;-78
2022/10/18 06:51:01;;;;;;;83.80;36.67;;;;;;;12.47;100.00;102632.59;5053939;28;20017;-79
2022/10/18 06:53:29;;;;;;;72.05;34.35;;;;;;;12.50;100.00;102629.97;5052171;28;20120;-79
2022/10/18 06:56:02;;;;;;;78.55;35.25;;;;;;;12.50;100.00;102636.06;5053948;28;20184;-78
2022/10/18 06:58:28;;;;;;;80.75;35.15;;;;;;;12.55;100.00;102649.13;5050934;28;20041;-79
2022/10/18 07:00:54;;;;;;;78.82;35.05;;;;;;;12.56;100.00;102657.00;5048943;28;20029;-78
2022/10/18 07:03:20;;;;;;;73.72;34.67;;;;;;;12.63;100.00;102670.94;5048848;28;20041;-78
2022/10/18 07:05:46;;;;;;;73.03;33.88;;;;;;;12.62;100.00;102658.69;5051488;28;20730;-79
2022/10/18 07:08:11;;;;;;;75.75;35.92;;;;;;;12.59;100.00;102656.13;5036190;28;20111;-78
2022/10/18 07:10:37;;;;;;;93.10;33.92;;;;;;;12.63;100.00;102670.94;5049075;28;20021;-78
2022/10/18 07:13:02;;;;;;;71.40;34.47;;;;;;;12.60;100.00;102665.69;5040123;28;20037;-78
2022/10/18 07:15:28;;;;;;;85.63;34.47;;;;;;;12.65;100.00;102677.00;5052734;28;20021;-78
2022/10/18 07:17:53;;;;;;;60.70;32.65;;;;;;;12.63;100.00;102679.66;5051881;28;20103;-78
2022/10/18 07:20:18;;;;;;;59.65;31.00;;;;;;;12.68;100.00;102679.63;5048613;28;20376;-78
2022/10/18 07:22:44;;;;;;;145.07;35.42;;;;;;;12.68;100.00;102676.13;5052724;28;20098;-78
2022/10/18 07:25:09;;;;;;;82.47;32.22;;;;;;;12.70;100.00;102674.41;5051764;28;20037;-78
2022/10/18 07:27:39;;;;;;;95.32;34.45;;;;;;;12.74;100.00;102673.50;5051280;28;20051;-78
2022/10/18 07:30:07;;;;;;;87.05;33.85;;;;;;;12.87;100.00;102691.78;5052443;28;20040;-78
2022/10/18 07:32:32;;;;;;;115.40;36.13;;;;;;;12.91;100.00;102697.88;5052945;28;20029;-78
2022/10/18 07:34:57;;;;;;;83.70;36.08;;;;;;;12.92;100.00;102690.91;5045322;28;20039;-78
2022/10/18 07:37:23;;;;;;;181.93;38.53;;;;;;;13.00;100.00;102702.19;5046682;28;20586;-77
2022/10/18 07:39:48;;;;;;;178.63;38.90;;;;;;;13.02;100.00;102701.31;5043491;28;20039;-78
2022/10/18 07:42:13;;;;;;;107.78;37.50;;;;;;;13.04;100.00;102711.78;5052009;28;20537;-78
2022/10/18 07:44:39;;;;;;;134.25;36.42;;;;;;;13.04;100.00;102723.13;5053061;28;20032;-78
2022/10/18 07:47:04;;;;;;;113.38;35.45;;;;;;;13.01;100.00;102706.56;5051472;28;20044;-78
2022/10/18 07:49:29;;;;;;;123.50;35.33;;;;;;;13.07;100.00;102723.09;5041438;28;20522;-78
2022/10/18 07:51:55;;;;;;;90.95;35.88;;;;;;;13.16;100.00;102740.53;5044813;28;20129;-78
2022/10/18 07:54:21;;;;;;;72.22;35.53;;;;;;;13.24;100.00;102735.25;5053066;28;20032;-78
2022/10/18 07:56:46;;;;;;;85.28;36.13;;;;;;;13.30;100.00;102737.88;5043811;28;20113;-78
2022/10/18 07:59:12;;;;;;;76.97;35.75;;;;;;;13.35;100.00;102744.00;5050142;28;20100;-77
2022/10/18 08:01:37;;;;;;;112.75;36.15;;;;;;;13.31;100.00;102743.13;5048020;28;20025;-77
2022/10/18 08:04:02;;;;;;;78.50;34.08;;;;;;;13.40;100.00;102757.06;5041383;28;20408;-78
2022/10/18 08:06:28;;;;;;;77.30;33.47;;;;;;;13.37;100.00;102746.59;5036347;28;20100;-77
2022/10/18 08:08:53;;;;;;;84.57;34.53;;;;;;;13.38;100.00;102751.84;5039671;28;20361;-78
2022/10/18 08:11:21;;;;;;;75.55;35.15;;;;;;;13.46;100.00;102759.66;5052094;28;20095;-77
2022/10/18 08:13:46;;;;;;;72.88;34.35;;;;;;;13.49;100.00;102757.88;5052692;28;20075;-77
2022/10/18 08:16:15;;;;;;;78.05;35.70;;;;;;;13.56;100.00;102759.59;5051553;28;20033;-78
2022/10/18 08:18:40;;;;;;;77.85;34.63;;;;;;;13.63;100.00;102763.03;5045505;28;20117;-77
2022/10/18 08:21:07;;;;;;;73.95;34.30;;;;;;;13.58;100.00;102759.59;5043020;28;20199;-77
2022/10/18 08:23:34;;;;;;;82.78;33.83;;;;;;;13.56;100.00;102761.34;5051869;28;20052;-77
2022/10/18 08:26:05;;;;;;;78.70;33.15;;;;;;;13.63;100.00;102767.41;5050974;28;20029;-77
2022/10/18 08:28:30;;;;;;;71.78;31.98;;;;;;;13.66;100.00;102772.66;5050948;28;20027;-77
2022/10/18 08:30:56;;;;;;;78.20;32.92;;;;;;;13.67;100.00;102783.13;5050346;28;20032;-77
2022/10/18 08:33:21;;;;;;;69.68;31.83;;;;;;;13.62;100.00;102777.03;5050258;28;20044;-77
2022/10/18 08:35:58;;;;;;;64.63;31.25;;;;;;;13.53;100.00;102784.94;5044394;28;20029;-76
2022/10/18 08:41:01;;;;;;;66.20;30.80;;;;;;;13.48;100.00;102791.97;5051656;22;20080;-76
2022/10/18 08:43:32;;;;;;;63.45;29.65;;;;;;;13.46;100.00;102789.34;4959129;28;20130;-76
2022/10/18 08:45:58;;;;;;;69.43;31.08;;;;;;;13.55;100.00;102781.44;4971232;28;20062;-75
2022/10/18 08:48:34;;;;;;;69.35;30.95;;;;;;;13.62;100.00;102784.91;4972329;28;20511;-75
2022/10/18 08:51:02;;;;;;;83.07;33.13;;;;;;;13.69;100.00;102790.97;4977206;28;20033;-76
2022/10/18 08:53:37;;;;;;;72.38;33.53;;;;;;;13.82;100.00;102780.41;4969767;28;20102;-76
2022/10/18 08:56:13;;;;;;;78.03;33.47;;;;;;;13.92;100.00;102789.09;4971212;28;20015;-75
2022/10/18 08:58:41;;;;;;;76.68;30.92;;;;;;;13.94;100.00;102792.56;4970632;28;20031;-76
2022/10/18 09:01:06;;;;;;;71.25;30.60;;;;;;;13.86;100.00;102789.13;4968287;28;20158;-76
2022/10/18 09:03:53;;;;;;;62.83;30.02;;;;;;;13.88;100.00;102800.47;4970627;28;20138;-76
2022/10/18 09:06:29;;;;;;;68.70;32.05;;;;;;;13.92;100.00;102803.94;4967006;28;20082;-76
2022/10/18 09:09:00;;;;;;;57.60;29.45;;;;;;;13.90;100.00;102797.88;4969191;28;20027;-76
2022/10/18 09:11:30;;;;;;;61.60;29.02;;;;;;;13.88;100.00;102802.25;4968579;28;20042;-75
2022/10/18 09:14:19;;;;;;;49.55;26.95;;;;;;;13.75;100.00;102786.56;4968593;28;20056;-76
2022/10/18 09:16:53;;;;;;;49.40;26.67;;;;;;;13.70;100.00;102798.84;4973684;28;20057;-76
2022/10/18 09:19:47;;;;;;;56.97;28.25;;;;;;;13.77;100.00;102799.69;4969565;28;20097;-76
2022/10/18 09:22:17;;;;;;;52.73;27.27;;;;;;;13.72;100.00;102801.44;4963735;28;20039;-77
2022/10/18 09:25:01;;;;;;;48.80;25.58;;;;;;;13.59;100.00;102801.50;4969176;28;20114;-77
2022/10/18 09:27:40;;;;;;;42.75;23.67;;;;;;;13.45;100.00;102795.47;4970235;28;20166;-77
2022/10/18 09:30:44;;;;;;;47.95;24.98;;;;;;;13.39;100.00;102789.38;4970168;28;20027;-77
2022/10/18 09:33:24;;;;;;;;;;;;;;;13.43;100.00;102806.81;4963265;28;20129;-77
2022/10/18 09:36:06;;;;;;;42.20;23.73;;;;;;;13.34;100.00;102797.25;4969733;28;19914;-76
2022/10/18 09:38:38;;;;;;;53.92;25.02;;;;;;;13.35;100.00;102797.25;4966326;28;20102;-77
2022/10/18 09:41:12;;;;;;;45.05;24.85;;;;;;;13.34;100.00;102810.34;4971168;28;20043;-77
2022/10/18 09:43:58;;;;;;;45.28;25.15;;;;;;;13.42;100.00;102812.94;4970737;28;20027;-77
2022/10/18 09:46:29;;;;;;;48.42;23.58;;;;;;;13.37;100.00;102812.09;4968625;28;20082;-77
2022/10/18 09:49:11;;;;;;;43.17;22.90;;;;;;;13.37;100.00;102796.38;4970325;28;20041;-77
2022/10/18 09:51:39;;;;;;;49.05;23.52;;;;;;;13.45;100.00;102812.94;4967460;28;20394;-76
2022/10/18 09:54:23;;;;;;;47.28;22.75;;;;;;;13.51;100.00;102818.16;4971748;28;20034;-76
2022/10/18 09:56:54;;;;;;;40.53;20.80;;;;;;;13.53;100.00;102811.13;4969723;28;20070;-76
2022/10/18 09:59:35;;;;;;;39.83;20.27;;;;;;;13.53;100.00;102809.38;4968585;28;20027;-76
2022/10/18 10:02:01;;;;;;;37.30;19.70;;;;;;;13.52;100.00;102806.78;4967958;28;20038;-77
2022/10/18 10:04:26;;;;;;;37.67;20.80;;;;;;;13.51;100.00;102797.19;4971613;28;20374;-76
2022/10/18 10:06:54;;;;;;;45.58;19.67;;;;;;;13.53;100.00;102795.41;4974839;28;20090;-76
2022/10/18 10:09:35;;;;;;;33.53;19.02;;;;;;;13.55;100.00;102780.56;4974402;28;20031;-76
2022/10/18 10:12:01;;;;;;;37.10;19.83;;;;;;;13.67;100.00;102798.88;4962609;28;20023;-77
2022/10/18 10:14:29;;;;;;;40.83;20.13;;;;;;;13.79;100.00;102797.91;4973280;28;20034;-76
2022/10/18 10:17:02;;;;;;;36.35;18.73;;;;;;;13.88;100.00;102786.50;4961348;28;20029;-76
2022/10/18 10:19:32;;;;;;;40.78;21.08;;;;;;;13.91;100.00;102796.97;4976426;28;20033;-76
2022/10/18 10:22:01;;;;;;;37.65;19.63;;;;;;;13.98;100.00;102790.81;4974889;28;20019;-76
2022/10/18 10:24:42;;;;;;;36.35;19.75;;;;;;;14.08;100.00;102802.97;4973448;28;20022;-76
2022/10/18 10:27:16;;;;;;;39.30;19.67;;;;;;;14.11;100.00;102804.72;4974152;28;20037;-76
2022/10/18 10:29:44;;;;;;;32.08;18.67;;;;;;;14.20;100.00;102800.28;4973344;28;20097;-76
2022/10/18 10:32:13;;;;;;;32.30;18.45;;;;;;;14.23;100.00;102800.25;4973536;28;20579;-76
2022/10/18 10:34:39;;;;;;;37.55;19.50;;;;;;;14.37;100.00;102802.75;4973481;28;20490;-76
2022/10/18 10:37:22;;;;;;;41.55;17.73;;;;;;;14.41;100.00;102800.97;4972991;28;20030;-76
2022/10/18 10:40:09;;;;;;;33.08;16.83;;;;;;;14.53;100.00;102824.53;4971200;28;20046;-76
2022/10/18 10:42:47;;;;;;;34.20;18.33;;;;;;;14.62;100.00;102818.34;4972033;28;20050;-76
2022/10/18 10:45:13;;;;;;;30.38;15.57;;;;;;;14.63;100.00;102810.44;4973819;28;20027;-76
2022/10/18 10:47:39;;;;;;;29.05;15.00;;;;;;;14.84;100.00;102824.25;4972628;28;20478;-76
2022/10/18 10:50:11;;;;;;;22.10;9.40;;;;;;;14.91;100.00;102836.41;4974494;28;20023;-76
2022/10/18 10:52:39;;;;;;;23.87;11.07;;;;;;;15.11;100.00;102826.59;4971182;28;20038;-76
2022/10/18 10:55:15;;;;;;;24.88;12.00;;;;;;;15.10;100.00;102829.22;4971819;28;20486;-76
2022/10/18 10:57:44;;;;;;;19.35;11.18;;;;;;;15.08;100.00;102820.50;4973578;28;20454;-76
2022/10/18 11:00:32;;;;;;;22.58;11.05;;;;;;;15.24;100.00;102829.97;4973229;28;20069;-76
2022/10/18 11:03:24;;;;;;;15.70;8.23;;;;;;;15.25;100.00;102842.22;4973769;28;20026;-76
2022/10/18 11:05:52;;;;;;;17.00;7.90;;;;;;;15.38;100.00;102835.06;4968972;28;20089;-76
2022/10/18 11:08:27;;;;;;;17.52;7.18;;;;;;;15.54;100.00;102823.47;4973031;28;20023;-76
2022/10/18 11:11:00;;;;;;;20.20;7.68;;;;;;;15.79;100.00;102838.94;4969274;28;20085;-76
2022/10/18 11:13:47;;;;;;;20.88;7.40;;;;;;;15.93;100.00;102836.13;4971994;28;20065;-76